createdAt,value
2018-03-02T00:00:29.080Z,5.62
2018-03-02T00:02:56.609Z,5.63
2018-03-02T00:05:24.133Z,5.59
2018-03-02T00:07:51.822Z,5.58
2018-03-02T00:10:19.387Z,5.59
2018-03-02T00:12:46.946Z,5.58
2018-03-02T00:15:14.602Z,5.59
2018-03-02T00:17:42.136Z,5.56
2018-03-02T00:20:09.716Z,5.56
2018-03-02T00:22:37.377Z,5.54
2018-03-02T00:25:05.008Z,5.55
2018-03-02T00:27:32.581Z,5.53
2018-03-02T00:30:00.220Z,5.55
2018-03-02T00:32:27.772Z,5.55
2018-03-02T00:34:55.304Z,5.53
2018-03-02T00:37:22.833Z,5.49
2018-03-02T00:39:50.365Z,5.46
2018-03-02T00:42:17.873Z,5.42
2018-03-02T00:44:45.386Z,5.39
2018-03-02T00:47:12.932Z,5.35
2018-03-02T00:49:40.500Z,5.37
2018-03-02T00:52:08.076Z,5.34
2018-03-02T00:54:35.837Z,5.32
2018-03-02T00:57:03.382Z,5.29
2018-03-02T00:59:30.916Z,5.29
2018-03-02T01:01:58.535Z,5.21
2018-03-02T01:04:26.066Z,5.28
2018-03-02T01:06:53.657Z,5.26
2018-03-02T01:09:21.223Z,5.28
2018-03-02T01:11:48.756Z,5.25
2018-03-02T01:14:16.265Z,5.25
2018-03-02T01:16:43.824Z,5.24
2018-03-02T01:19:11.324Z,5.09
2018-03-02T01:21:38.851Z,5.24
2018-03-02T01:24:06.381Z,5.23
2018-03-02T01:26:33.951Z,5.25
2018-03-02T01:29:01.605Z,5.24
2018-03-02T01:31:29.219Z,5.11
2018-03-02T01:33:56.746Z,5.25
2018-03-02T01:36:24.380Z,5.25
2018-03-02T01:38:51.953Z,5.19
2018-03-02T01:41:19.486Z,5.22
2018-03-02T01:43:47.017Z,5.18
2018-03-02T01:46:14.553Z,5.20
2018-03-02T01:48:42.078Z,5.19
2018-03-02T01:51:09.616Z,5.20
2018-03-02T01:53:37.294Z,5.20
2018-03-02T01:56:04.897Z,5.19
2018-03-02T01:58:32.464Z,5.22
2018-03-02T02:01:00.078Z,5.22
2018-03-02T02:03:27.650Z,5.19
2018-03-02T02:05:55.254Z,5.27
2018-03-02T02:08:22.846Z,5.29
2018-03-02T02:10:50.376Z,5.30
2018-03-02T02:13:17.903Z,5.30
2018-03-02T02:15:45.457Z,5.32
2018-03-02T02:18:12.974Z,5.32
2018-03-02T02:20:40.491Z,5.34
2018-03-02T02:23:08.053Z,5.35
2018-03-02T02:25:35.577Z,5.35
2018-03-02T02:28:03.109Z,5.35
2018-03-02T02:30:30.642Z,5.37
2018-03-02T02:32:58.171Z,5.24
2018-03-02T02:35:25.695Z,5.39
2018-03-02T02:37:53.253Z,5.39
2018-03-02T02:40:20.829Z,5.39
2018-03-02T02:42:48.310Z,5.35
2018-03-02T02:45:15.839Z,5.39
2018-03-02T02:47:43.370Z,5.42
2018-03-02T02:50:10.939Z,5.44
2018-03-02T02:52:38.482Z,5.44
2018-03-02T02:55:06.066Z,5.43
2018-03-02T02:57:33.593Z,5.38
2018-03-02T03:00:01.213Z,5.41
2018-03-02T03:02:28.778Z,5.41
2018-03-02T03:04:56.286Z,5.39
2018-03-02T03:07:23.813Z,5.39
2018-03-02T03:09:51.409Z,5.37
2018-03-02T03:12:18.962Z,5.31
2018-03-02T03:14:46.481Z,5.34
2018-03-02T03:17:14.077Z,5.33
2018-03-02T03:19:41.641Z,5.33
2018-03-02T03:22:09.160Z,5.31
2018-03-02T03:24:36.825Z,5.30
2018-03-02T03:27:04.342Z,5.29
2018-03-02T03:29:31.918Z,5.28
2018-03-02T03:31:59.458Z,5.29
2018-03-02T03:34:26.974Z,5.27
2018-03-02T03:36:54.487Z,5.27
2018-03-02T03:39:22.107Z,5.25
2018-03-02T03:41:49.678Z,5.23
2018-03-02T03:44:17.233Z,5.24
2018-03-02T03:46:44.774Z,5.20
2018-03-02T03:49:12.337Z,5.23
2018-03-02T03:51:39.881Z,5.21
2018-03-02T03:54:07.480Z,5.21
2018-03-02T03:56:35.025Z,5.25
2018-03-02T03:59:02.603Z,5.24
2018-03-02T04:01:30.189Z,5.25
2018-03-02T04:03:57.709Z,5.24
2018-03-02T04:06:25.245Z,5.18
2018-03-02T04:08:52.796Z,5.24
2018-03-02T04:11:20.312Z,5.25
2018-03-02T04:13:47.825Z,5.26
2018-03-02T04:16:15.383Z,5.27
2018-03-02T04:18:42.905Z,5.20
2018-03-02T04:21:10.417Z,5.24
2018-03-02T04:23:37.959Z,5.23
2018-03-02T04:26:05.562Z,5.23
2018-03-02T04:28:33.096Z,5.23
2018-03-02T04:31:00.672Z,5.21
2018-03-02T04:33:28.197Z,5.24
2018-03-02T04:35:55.705Z,5.25
2018-03-02T04:38:23.342Z,5.18
2018-03-02T04:40:50.862Z,5.24
2018-03-02T04:43:18.518Z,5.22
2018-03-02T04:45:46.092Z,5.25
2018-03-02T04:48:13.665Z,5.29
2018-03-02T04:50:41.201Z,5.29
2018-03-02T04:53:08.757Z,5.32
2018-03-02T04:55:36.293Z,5.32
2018-03-02T04:58:03.895Z,5.31
2018-03-02T05:00:31.489Z,5.31
2018-03-02T05:02:59.040Z,5.33
2018-03-02T05:05:26.674Z,5.33
2018-03-02T05:07:54.269Z,5.31
2018-03-02T05:10:21.838Z,5.68
2018-03-02T05:12:49.421Z,5.67
2018-03-02T05:15:17.023Z,5.62
2018-03-02T05:17:44.563Z,5.61
2018-03-02T05:20:12.191Z,5.56
2018-03-02T05:22:39.724Z,5.54
2018-03-02T05:25:07.255Z,6.36
2018-03-02T05:27:34.834Z,6.69
2018-03-02T05:30:02.452Z,7.02
2018-03-02T05:32:30.047Z,7.34
2018-03-02T05:34:57.565Z,7.47
2018-03-02T05:37:25.095Z,7.20
2018-03-02T05:39:52.669Z,6.95
2018-03-02T05:42:20.693Z,6.79
2018-03-02T05:44:48.301Z,6.62
2018-03-02T05:47:16.074Z,6.57
2018-03-02T05:49:43.616Z,6.51
2018-03-02T05:52:11.192Z,6.48
2018-03-02T05:54:38.728Z,6.42
2018-03-02T05:57:06.286Z,6.37
2018-03-02T05:59:33.886Z,6.35
2018-03-02T06:02:01.457Z,6.34
2018-03-02T06:04:28.989Z,6.32
2018-03-02T06:06:56.513Z,6.25
2018-03-02T06:09:24.050Z,6.28
2018-03-02T06:11:51.636Z,6.25
2018-03-02T06:14:19.149Z,6.29
2018-03-02T06:16:46.722Z,6.31
2018-03-02T06:19:14.287Z,6.30
2018-03-02T06:21:41.823Z,6.33
2018-03-02T06:24:09.645Z,6.42
2018-03-02T06:26:37.289Z,6.45
2018-03-02T06:29:04.819Z,6.47
2018-03-02T06:31:32.423Z,6.56
2018-03-02T06:33:59.995Z,6.61
2018-03-02T06:36:27.529Z,6.66
2018-03-02T06:38:55.202Z,6.73
2018-03-02T06:41:22.770Z,6.76
2018-03-02T06:43:50.328Z,6.85
2018-03-02T06:46:17.984Z,6.92
2018-03-02T06:48:45.575Z,6.99
2018-03-02T06:51:13.153Z,7.06
2018-03-02T06:53:40.725Z,7.18
2018-03-02T06:56:08.242Z,7.24
2018-03-02T06:58:35.937Z,7.25
2018-03-02T07:01:03.541Z,7.29
2018-03-02T07:03:31.061Z,7.35
2018-03-02T07:05:58.627Z,7.44
2018-03-02T07:08:26.287Z,7.50
2018-03-02T07:10:53.815Z,7.62
2018-03-02T07:13:21.474Z,7.68
2018-03-02T07:15:49.141Z,7.77
2018-03-02T07:18:16.661Z,7.76
2018-03-02T07:20:44.250Z,7.64
2018-03-02T07:23:11.789Z,7.67
2018-03-02T07:25:39.349Z,7.69
2018-03-02T07:28:06.978Z,7.69
2018-03-02T07:30:34.526Z,7.73
2018-03-02T07:33:02.106Z,7.81
2018-03-02T07:35:29.682Z,7.93
2018-03-02T07:37:57.281Z,8.04
2018-03-02T07:40:24.806Z,8.00
2018-03-02T07:42:52.428Z,8.13
2018-03-02T07:45:20.248Z,8.17
2018-03-02T07:47:48.067Z,8.23
2018-03-02T07:50:15.633Z,8.30
2018-03-02T07:52:43.244Z,8.32
2018-03-02T07:55:10.761Z,8.35
2018-03-02T07:57:38.305Z,8.36
2018-03-02T08:00:06.512Z,8.36
2018-03-02T08:02:34.052Z,8.24
2018-03-02T08:05:01.639Z,8.37
2018-03-02T08:07:29.226Z,8.37
2018-03-02T08:09:56.788Z,8.40
2018-03-02T08:12:24.324Z,8.47
2018-03-02T08:14:51.864Z,8.54
2018-03-02T08:17:19.457Z,8.62
2018-03-02T08:19:47.047Z,8.70
2018-03-02T08:22:14.610Z,8.74
2018-03-02T08:24:42.169Z,8.84
2018-03-02T08:27:09.695Z,8.91
2018-03-02T08:29:37.268Z,9.05
2018-03-02T08:32:04.818Z,9.23
2018-03-02T08:34:32.356Z,9.25
2018-03-02T08:36:59.889Z,9.25
2018-03-02T08:39:27.608Z,9.23
2018-03-02T08:41:55.233Z,9.23
2018-03-02T08:44:22.787Z,9.26
2018-03-02T08:46:50.408Z,9.34
2018-03-02T08:49:17.924Z,9.46
2018-03-02T08:51:45.506Z,9.54
2018-03-02T08:54:13.131Z,9.62
2018-03-02T08:56:40.710Z,9.67
2018-03-02T08:59:08.229Z,9.82
2018-03-02T09:01:35.805Z,9.89
2018-03-02T09:04:03.336Z,9.93
2018-03-02T09:06:30.912Z,9.96
2018-03-02T09:08:58.485Z,9.97
2018-03-02T09:11:26.068Z,10.02
2018-03-02T09:13:53.624Z,10.08
2018-03-02T09:16:21.206Z,10.09
2018-03-02T09:18:48.756Z,10.04
2018-03-02T09:21:16.316Z,9.96
2018-03-02T09:23:43.855Z,9.95
2018-03-02T09:26:11.433Z,10.03
2018-03-02T09:28:38.965Z,10.21
2018-03-02T09:31:06.563Z,10.31
2018-03-02T09:33:34.144Z,10.48
2018-03-02T09:36:01.709Z,10.63
2018-03-02T09:38:29.338Z,10.95
2018-03-02T09:40:56.865Z,11.19
2018-03-02T09:43:24.406Z,11.40
2018-03-02T09:45:51.973Z,11.75
2018-03-02T09:48:19.590Z,12.15
2018-03-02T09:50:47.207Z,12.50
2018-03-02T09:53:14.810Z,12.64
2018-03-02T09:55:42.370Z,12.83
2018-03-02T09:58:09.932Z,12.95
2018-03-02T10:00:37.504Z,13.36
2018-03-02T10:03:05.231Z,13.79
2018-03-02T10:05:32.825Z,13.82
2018-03-02T10:08:00.433Z,14.04
2018-03-02T10:10:28.036Z,14.11
2018-03-02T10:12:56.432Z,14.10
2018-03-02T10:15:24.939Z,13.93
2018-03-02T10:17:52.834Z,13.99
2018-03-02T10:20:20.434Z,14.18
2018-03-02T10:22:48.027Z,14.66
2018-03-02T10:25:15.595Z,15.43
2018-03-02T10:27:43.117Z,16.67
2018-03-02T10:30:10.770Z,16.98
2018-03-02T10:32:38.311Z,17.01
2018-03-02T10:35:05.839Z,16.62
2018-03-02T10:37:33.393Z,16.71
2018-03-02T10:40:01.089Z,16.43
2018-03-02T10:42:28.722Z,16.24
2018-03-02T10:44:56.377Z,16.00
2018-03-02T10:47:23.935Z,15.93
2018-03-02T10:49:51.508Z,15.81
2018-03-02T10:52:19.133Z,15.57
2018-03-02T10:54:46.671Z,15.53
2018-03-02T10:57:14.193Z,15.62
2018-03-02T10:59:41.809Z,15.43
2018-03-02T11:02:14.965Z,15.23
2018-03-02T11:04:47.405Z,15.14
2018-03-02T11:07:15.077Z,14.91
2018-03-02T11:09:42.796Z,14.68
2018-03-02T11:12:10.349Z,14.37
2018-03-02T11:14:37.938Z,14.15
2018-03-02T11:17:05.498Z,14.01
2018-03-02T11:19:33.058Z,13.89
2018-03-02T11:22:00.602Z,13.88
2018-03-02T11:24:28.181Z,14.05
2018-03-02T11:26:55.748Z,14.09
2018-03-02T11:29:23.334Z,14.16
2018-03-02T11:31:50.918Z,14.15
2018-03-02T11:34:18.525Z,14.14
2018-03-02T11:36:46.108Z,14.30
2018-03-02T11:39:13.717Z,14.38
2018-03-02T11:41:41.256Z,14.62
2018-03-02T11:44:08.800Z,14.86
2018-03-02T11:46:36.333Z,14.75
2018-03-02T11:49:03.935Z,14.67
2018-03-02T11:51:31.526Z,14.82
2018-03-02T11:53:59.116Z,14.79
2018-03-02T11:56:26.694Z,14.54
2018-03-02T11:58:54.336Z,14.44
2018-03-02T12:01:21.977Z,14.22
2018-03-02T12:03:49.503Z,14.14
2018-03-02T12:06:17.082Z,14.33
2018-03-02T12:08:44.630Z,14.48
2018-03-02T12:11:12.214Z,14.28
2018-03-02T12:13:39.778Z,14.06
2018-03-02T12:16:07.336Z,14.01
2018-03-02T12:18:34.965Z,14.01
2018-03-02T12:21:03.125Z,14.01
2018-03-02T12:23:30.665Z,14.05
2018-03-02T12:25:58.281Z,14.14
2018-03-02T12:28:26.767Z,14.17
2018-03-02T12:30:55.372Z,14.22
2018-03-02T12:33:22.937Z,14.31
2018-03-02T12:35:50.490Z,14.35
2018-03-02T12:38:18.198Z,14.27
2018-03-02T12:40:45.784Z,14.34
2018-03-02T12:43:13.414Z,14.24
2018-03-02T12:45:41.095Z,14.19
2018-03-02T12:48:08.719Z,14.20
2018-03-02T12:50:36.313Z,14.16
2018-03-02T12:53:03.887Z,13.98
2018-03-02T12:55:31.542Z,13.92
2018-03-02T12:57:59.235Z,13.91
2018-03-02T13:00:26.797Z,13.96
2018-03-02T13:02:54.578Z,13.91
2018-03-02T13:05:22.171Z,13.91
2018-03-02T13:07:50.004Z,13.87
2018-03-02T13:10:17.894Z,13.77
2018-03-02T13:12:45.479Z,13.57
2018-03-02T13:15:13.052Z,13.55
2018-03-02T13:17:40.610Z,13.43
2018-03-02T13:20:08.573Z,13.25
2018-03-02T13:22:41.321Z,13.19
2018-03-02T13:25:08.886Z,13.06
2018-03-02T13:27:48.277Z,12.95
2018-03-02T13:30:16.852Z,12.85
2018-03-02T13:33:05.098Z,12.82
2018-03-02T13:35:32.677Z,12.81
2018-03-02T13:38:00.260Z,12.80
2018-03-02T13:40:39.473Z,12.77
2018-03-02T13:43:07.031Z,12.75
2018-03-02T13:45:34.569Z,12.58
2018-03-02T13:48:31.890Z,12.42
2018-03-02T13:50:59.424Z,12.31
2018-03-02T13:53:27.901Z,12.30
2018-03-02T13:55:55.533Z,12.10
2018-03-02T13:58:23.074Z,12.10
2018-03-02T14:00:50.660Z,12.02
2018-03-02T14:03:29.830Z,11.88
2018-03-02T14:05:57.429Z,11.74
2018-03-02T14:08:25.774Z,11.56
2018-03-02T14:10:53.551Z,11.44
2018-03-02T14:13:21.205Z,11.35
2018-03-02T14:15:48.743Z,11.26
2018-03-02T14:18:16.300Z,11.19
2018-03-02T14:20:43.902Z,11.11
2018-03-02T14:23:11.454Z,11.06
2018-03-02T14:25:39.153Z,11.03
2018-03-02T14:28:07.694Z,10.98
2018-03-02T14:30:35.273Z,10.93
2018-03-02T14:33:03.765Z,10.84
2018-03-02T14:35:31.310Z,10.82
2018-03-02T14:37:58.933Z,10.80
2018-03-02T14:40:26.496Z,10.79
2018-03-02T14:42:54.096Z,10.75
2018-03-02T14:45:21.665Z,10.74
2018-03-02T14:47:49.200Z,10.72
2018-03-02T14:50:16.842Z,10.64
2018-03-02T14:52:44.420Z,10.63
2018-03-02T14:55:11.968Z,10.63
2018-03-02T14:57:39.628Z,10.61
2018-03-02T15:00:08.339Z,10.60
2018-03-02T15:02:35.897Z,10.55
2018-03-02T15:05:03.429Z,10.50
2018-03-02T15:07:30.994Z,10.49
2018-03-02T15:09:58.549Z,10.51
2018-03-02T15:12:26.356Z,10.48
2018-03-02T15:14:54.007Z,10.44
2018-03-02T15:17:21.605Z,10.44
2018-03-02T15:19:49.188Z,10.36
2018-03-02T15:22:16.760Z,10.34
2018-03-02T15:24:44.342Z,10.30
2018-03-02T15:27:11.913Z,10.26
2018-03-02T15:29:39.490Z,10.24
2018-03-02T15:32:07.102Z,10.24
2018-03-02T15:34:34.621Z,10.22
2018-03-02T15:37:02.154Z,10.21
2018-03-02T15:39:29.712Z,10.20
2018-03-02T15:41:57.303Z,10.22
2018-03-02T15:44:24.889Z,10.45
2018-03-02T15:46:52.447Z,10.54
2018-03-02T15:49:20.054Z,10.58
2018-03-02T15:51:47.657Z,10.53
2018-03-02T15:54:15.298Z,10.47
2018-03-02T15:56:42.894Z,10.39
2018-03-02T15:59:10.526Z,10.26
2018-03-02T16:01:38.254Z,10.11
2018-03-02T16:04:05.893Z,10.08
2018-03-02T16:06:33.463Z,10.01
2018-03-02T16:09:01.122Z,9.87
2018-03-02T16:11:28.706Z,9.81
2018-03-02T16:13:56.280Z,9.80
2018-03-02T16:16:23.895Z,9.73
2018-03-02T16:18:51.547Z,9.66
2018-03-02T16:21:19.173Z,9.59
2018-03-02T16:23:46.759Z,9.54
2018-03-02T16:26:14.329Z,9.49
2018-03-02T16:28:41.896Z,9.45
2018-03-02T16:31:09.594Z,9.41
2018-03-02T16:33:37.175Z,9.36
2018-03-02T16:36:04.746Z,9.13
2018-03-02T16:38:32.375Z,9.28
2018-03-02T16:40:59.984Z,9.25
2018-03-02T16:43:27.588Z,9.19
2018-03-02T16:45:55.207Z,9.03
2018-03-02T16:48:22.779Z,8.95
2018-03-02T16:50:50.376Z,9.09
2018-03-02T16:53:17.982Z,9.03
2018-03-02T16:55:45.534Z,8.85
2018-03-02T16:58:13.146Z,8.88
2018-03-02T17:00:40.753Z,8.96
2018-03-02T17:03:08.341Z,8.97
2018-03-02T17:05:36.010Z,8.93
2018-03-02T17:08:03.620Z,8.96
2018-03-02T17:10:31.217Z,8.96
2018-03-02T17:12:58.784Z,8.94
2018-03-02T17:15:26.377Z,8.94
2018-03-02T17:17:53.971Z,8.76
2018-03-02T17:20:21.600Z,8.83
2018-03-02T17:22:49.204Z,8.85
2018-03-02T17:25:17.787Z,8.82
2018-03-02T17:27:45.381Z,8.63
2018-03-02T17:30:13.044Z,8.72
2018-03-02T17:32:40.652Z,8.66
2018-03-02T17:35:08.325Z,8.67
2018-03-02T17:37:35.908Z,8.70
2018-03-02T17:40:03.515Z,8.56
2018-03-02T17:42:31.106Z,8.68
2018-03-02T17:44:58.747Z,8.59
2018-03-02T17:47:26.415Z,8.63
2018-03-02T17:49:53.986Z,8.39
2018-03-02T17:52:21.593Z,8.49
2018-03-02T17:54:49.187Z,8.41
2018-03-02T17:57:17.017Z,8.40
2018-03-02T17:59:44.642Z,8.40
2018-03-02T18:02:12.209Z,8.27
2018-03-02T18:04:40.467Z,8.40
2018-03-02T18:07:08.023Z,8.41
2018-03-02T18:09:35.599Z,8.44
2018-03-02T18:12:03.192Z,8.44
2018-03-02T18:14:30.762Z,8.42
2018-03-02T18:16:58.347Z,8.48
2018-03-02T18:19:25.910Z,8.50
2018-03-02T18:21:53.491Z,8.52
2018-03-02T18:24:21.056Z,8.53
2018-03-02T18:26:48.589Z,8.57
2018-03-02T18:29:16.267Z,8.54
2018-03-02T18:31:43.834Z,8.55
2018-03-02T18:34:11.447Z,8.59
2018-03-02T18:36:39.557Z,8.59
2018-03-02T18:39:07.149Z,8.64
2018-03-02T18:41:34.712Z,8.63
2018-03-02T18:44:02.297Z,8.69
2018-03-02T18:46:29.868Z,8.69
2018-03-02T18:48:57.473Z,8.70
2018-03-02T18:51:25.084Z,8.70
2018-03-02T18:53:53.489Z,8.67
2018-03-02T18:56:22.189Z,8.73
2018-03-02T18:58:49.737Z,8.70
2018-03-02T19:01:17.451Z,9.00
2018-03-02T19:03:45.008Z,10.66
2018-03-02T19:06:12.758Z,10.31
2018-03-02T19:08:40.330Z,10.04
2018-03-02T19:11:07.963Z,9.85
2018-03-02T19:13:35.549Z,9.73
2018-03-02T19:16:03.108Z,9.65
2018-03-02T19:18:30.684Z,9.56
2018-03-02T19:20:58.597Z,9.52
2018-03-02T19:23:26.287Z,9.49
2018-03-02T19:25:53.896Z,9.43
2018-03-02T19:28:21.539Z,9.33
2018-03-02T19:30:49.229Z,9.38
2018-03-02T19:33:17.786Z,9.36
2018-03-02T19:35:45.486Z,9.29
2018-03-02T19:38:13.191Z,9.12
2018-03-02T19:40:40.914Z,9.24
2018-03-02T19:43:08.911Z,9.25
2018-03-02T19:45:36.610Z,9.24
2018-03-02T19:48:04.270Z,9.21
2018-03-02T19:50:31.985Z,9.17
2018-03-02T19:52:59.647Z,9.16
2018-03-02T19:55:28.080Z,9.15
2018-03-02T19:57:55.742Z,9.13
2018-03-02T20:00:23.396Z,9.04
2018-03-02T20:02:51.029Z,9.04
2018-03-02T20:05:18.677Z,9.04
2018-03-02T20:07:46.510Z,8.99
2018-03-02T20:10:14.102Z,9.03
2018-03-02T20:12:41.700Z,9.00
2018-03-02T20:15:09.331Z,8.96
2018-03-02T20:17:36.918Z,8.95
2018-03-02T20:20:04.537Z,8.93
2018-03-02T20:22:32.175Z,8.88
2018-03-02T20:24:59.753Z,8.90
2018-03-02T20:27:27.400Z,8.38
2018-03-02T20:29:55.065Z,8.88
2018-03-02T20:32:22.737Z,8.87
2018-03-02T20:34:50.334Z,8.86
2018-03-02T20:37:17.945Z,8.78
2018-03-02T20:39:45.574Z,8.82
2018-03-02T20:42:13.165Z,8.75
2018-03-02T20:44:40.727Z,8.76
2018-03-02T20:47:08.283Z,8.69
2018-03-02T20:49:35.847Z,8.71
2018-03-02T20:52:03.425Z,8.67
2018-03-02T20:54:31.029Z,8.72
2018-03-02T20:56:58.599Z,8.71
2018-03-02T20:59:26.176Z,8.73
2018-03-02T21:01:53.737Z,8.76
2018-03-02T21:04:21.300Z,8.74
2018-03-02T21:06:48.952Z,8.72
2018-03-02T21:09:16.617Z,8.75
2018-03-02T21:11:44.174Z,8.72
2018-03-02T21:14:11.684Z,8.72
2018-03-02T21:16:40.006Z,8.72
2018-03-02T21:19:07.537Z,8.70
2018-03-02T21:21:35.052Z,8.70
2018-03-02T21:24:02.585Z,8.73
2018-03-02T21:26:30.180Z,8.74
2018-03-02T21:28:57.882Z,8.73
2018-03-02T21:31:25.425Z,8.76
2018-03-02T21:33:53.058Z,8.73
2018-03-02T21:36:20.812Z,8.74
2018-03-02T21:38:48.393Z,8.74
2018-03-02T21:41:15.940Z,8.70
2018-03-02T21:43:43.525Z,8.72
2018-03-02T21:46:11.017Z,8.70
2018-03-02T21:48:38.552Z,8.69
2018-03-02T21:51:06.124Z,8.71
2018-03-02T21:53:33.661Z,8.66
2018-03-02T21:56:01.173Z,8.69
2018-03-02T21:58:28.731Z,8.66
2018-03-02T22:00:56.296Z,8.68
2018-03-02T22:03:23.863Z,8.64
2018-03-02T22:05:51.381Z,8.58
2018-03-02T22:08:19.057Z,8.59
2018-03-02T22:10:46.634Z,8.60
2018-03-02T22:13:14.162Z,8.61
2018-03-02T22:15:41.766Z,8.62
2018-03-02T22:18:09.302Z,8.59
2018-03-02T22:20:36.813Z,8.61
2018-03-02T22:23:04.397Z,8.59
2018-03-02T22:25:32.076Z,8.59
2018-03-02T22:27:59.660Z,8.58
2018-03-02T22:30:27.274Z,8.61
2018-03-02T22:32:54.791Z,8.60
2018-03-02T22:35:22.372Z,8.59
2018-03-02T22:37:49.927Z,8.58
2018-03-02T22:40:17.465Z,8.60
2018-03-02T22:42:45.010Z,8.55
2018-03-02T22:45:12.551Z,8.53
2018-03-02T22:47:40.107Z,8.51
2018-03-02T22:50:07.632Z,8.51
2018-03-02T22:52:35.184Z,8.49
2018-03-02T22:55:02.776Z,8.46
2018-03-02T22:57:30.312Z,8.47
2018-03-02T22:59:57.905Z,8.43
2018-03-02T23:02:25.458Z,8.45
2018-03-02T23:04:53.099Z,8.44
2018-03-02T23:07:20.770Z,8.37
2018-03-02T23:09:48.388Z,8.34
2018-03-02T23:12:15.926Z,8.34
2018-03-02T23:14:43.476Z,8.37
2018-03-02T23:17:11.201Z,8.34
2018-03-02T23:19:38.731Z,8.29
2018-03-02T23:22:06.271Z,8.33
2018-03-02T23:24:33.824Z,8.33
2018-03-02T23:27:01.538Z,8.33
2018-03-02T23:29:29.115Z,8.16
2018-03-02T23:31:56.902Z,8.29
2018-03-02T23:34:24.541Z,8.31
2018-03-02T23:36:52.052Z,8.31
2018-03-02T23:39:19.602Z,8.29
2018-03-02T23:41:47.155Z,8.28
2018-03-02T23:44:14.788Z,8.24
2018-03-02T23:46:42.373Z,8.28
2018-03-02T23:49:09.936Z,8.27
2018-03-02T23:51:37.448Z,8.24
2018-03-02T23:54:05.010Z,8.26
2018-03-02T23:56:32.547Z,8.27
2018-03-02T23:59:00.093Z,8.18
